createdAt,value
2022-08-26T00:02:19.411Z,26.10
2022-08-26T00:04:49.854Z,26.00
2022-08-26T00:07:19.383Z,26.00
2022-08-26T00:09:47.593Z,26.00
2022-08-26T00:12:15.901Z,26.00
2022-08-26T00:14:44.618Z,26.00
2022-08-26T00:17:13.362Z,26.00
2022-08-26T00:19:42.800Z,26.00
2022-08-26T00:22:11.544Z,26.00
2022-08-26T00:24:39.690Z,25.90
2022-08-26T00:27:16.539Z,26.00
2022-08-26T00:29:45.891Z,25.90
2022-08-26T00:32:14.520Z,25.90
2022-08-26T00:34:44.022Z,25.90
2022-08-26T00:37:15.662Z,25.90
2022-08-26T00:39:44.783Z,25.90
2022-08-26T00:42:14.004Z,25.90
2022-08-26T00:44:42.254Z,25.80
2022-08-26T00:47:18.006Z,25.80
2022-08-26T00:49:50.233Z,25.80
2022-08-26T00:52:22.716Z,25.70
2022-08-26T00:54:59.209Z,25.70
2022-08-26T00:57:27.758Z,25.70
2022-08-26T01:00:01.560Z,25.70
2022-08-26T01:02:30.582Z,25.60
2022-08-26T01:05:03.451Z,25.60
2022-08-26T01:07:33.263Z,25.60
2022-08-26T01:10:06.432Z,25.50
2022-08-26T01:12:41.129Z,25.50
2022-08-26T01:15:11.399Z,25.50
2022-08-26T01:17:40.730Z,25.50
2022-08-26T01:20:20.475Z,25.40
2022-08-26T01:22:57.217Z,25.30
2022-08-26T01:25:28.189Z,25.30
2022-08-26T01:27:58.743Z,25.30
2022-08-26T01:30:28.671Z,25.20
2022-08-26T01:32:59.605Z,25.20
2022-08-26T01:35:29.452Z,25.20
2022-08-26T01:38:00.781Z,25.10
2022-08-26T01:40:34.918Z,25.10
2022-08-26T01:43:05.820Z,25.10
2022-08-26T01:46:33.904Z,25.10
2022-08-26T01:49:07.775Z,25.10
2022-08-26T01:51:37.952Z,25.00
2022-08-26T01:54:11.908Z,25.00
2022-08-26T01:56:41.038Z,24.90
2022-08-26T01:59:13.419Z,24.90
2022-08-26T02:01:41.907Z,24.90
2022-08-26T02:04:17.909Z,24.90
2022-08-26T02:06:47.318Z,24.90
2022-08-26T02:09:19.048Z,24.90
2022-08-26T02:11:49.134Z,24.90
2022-08-26T02:14:23.061Z,24.90
2022-08-26T02:16:56.134Z,24.90
2022-08-26T02:19:28.949Z,24.90
2022-08-26T02:22:00.275Z,24.90
2022-08-26T02:24:47.145Z,24.80
2022-08-26T02:27:16.886Z,24.80
2022-08-26T02:29:47.731Z,24.80
2022-08-26T02:32:18.863Z,24.80
2022-08-26T02:34:47.566Z,24.70
2022-08-26T02:37:15.718Z,24.70
2022-08-26T02:39:48.009Z,24.70
2022-08-26T02:42:16.728Z,24.60
2022-08-26T02:44:45.413Z,24.60
2022-08-26T02:47:15.453Z,24.60
2022-08-26T02:49:44.643Z,24.50
2022-08-26T02:52:16.396Z,24.50
2022-08-26T02:54:46.404Z,24.50
2022-08-26T02:57:17.705Z,24.50
2022-08-26T02:59:46.275Z,24.50
2022-08-26T03:02:14.865Z,24.40
2022-08-26T03:04:57.949Z,24.40
2022-08-26T03:07:30.718Z,24.40
2022-08-26T03:10:01.182Z,24.40
2022-08-26T03:12:37.102Z,24.40
2022-08-26T03:15:15.994Z,24.40
2022-08-26T03:17:47.006Z,24.40
2022-08-26T03:20:17.342Z,24.30
2022-08-26T03:22:46.174Z,24.30
2022-08-26T03:25:17.968Z,24.30
2022-08-26T03:27:46.753Z,24.30
2022-08-26T03:30:34.982Z,24.30
2022-08-26T03:33:04.076Z,24.30
2022-08-26T03:35:33.307Z,24.30
2022-08-26T03:38:01.974Z,24.30
2022-08-26T03:40:34.203Z,24.30
2022-08-26T03:43:02.509Z,24.30
2022-08-26T03:45:31.728Z,24.20
2022-08-26T03:48:00.977Z,24.20
2022-08-26T03:50:34.206Z,24.20
2022-08-26T03:53:07.448Z,24.20
2022-08-26T03:55:43.518Z,24.20
2022-08-26T03:58:12.021Z,24.20
2022-08-26T04:00:40.613Z,24.10
2022-08-26T04:03:10.039Z,24.10
2022-08-26T04:05:39.574Z,24.10
2022-08-26T04:08:08.804Z,24.10
2022-08-26T04:10:39.142Z,24.00
2022-08-26T04:13:09.285Z,24.00
2022-08-26T04:15:39.320Z,23.90
2022-08-26T04:18:07.882Z,23.90
2022-08-26T04:20:36.118Z,23.90
2022-08-26T04:23:05.266Z,23.90
2022-08-26T04:25:34.380Z,23.80
2022-08-26T04:28:04.285Z,23.80
2022-08-26T04:30:34.268Z,23.80
2022-08-26T04:33:04.604Z,23.80
2022-08-26T04:35:43.183Z,23.80
2022-08-26T04:38:12.428Z,23.80
2022-08-26T04:40:46.704Z,23.80
2022-08-26T04:43:16.195Z,23.80
2022-08-26T04:45:46.136Z,23.80
2022-08-26T04:48:16.756Z,23.80
2022-08-26T04:50:49.481Z,23.70
2022-08-26T04:53:17.886Z,23.70
2022-08-26T04:55:46.456Z,23.70
2022-08-26T04:58:18.146Z,23.70
2022-08-26T05:00:48.583Z,23.70
2022-08-26T05:03:18.042Z,23.70
2022-08-26T05:05:48.171Z,23.70
2022-08-26T05:08:18.117Z,23.70
2022-08-26T05:10:49.216Z,23.70
2022-08-26T05:13:20.694Z,23.70
2022-08-26T05:15:50.454Z,23.70
2022-08-26T05:18:21.298Z,23.80
2022-08-26T05:20:53.885Z,23.70
2022-08-26T05:23:24.114Z,23.80
2022-08-26T05:25:58.979Z,23.80
2022-08-26T05:28:30.405Z,23.80
2022-08-26T05:31:00.365Z,23.80
2022-08-26T05:33:29.399Z,23.80
2022-08-26T05:35:57.531Z,23.80
2022-08-26T05:38:30.265Z,23.80
2022-08-26T05:40:58.693Z,23.80
2022-08-26T05:43:28.120Z,23.80
2022-08-26T05:45:57.395Z,23.80
2022-08-26T05:48:40.261Z,23.80
2022-08-26T05:51:13.430Z,23.80
2022-08-26T05:53:54.786Z,23.90
2022-08-26T05:56:24.990Z,23.90
2022-08-26T05:58:53.560Z,23.90
2022-08-26T06:01:24.154Z,23.90
2022-08-26T06:03:56.347Z,23.90
2022-08-26T06:06:27.439Z,23.90
2022-08-26T06:08:57.540Z,24.00
2022-08-26T06:11:27.760Z,24.00
2022-08-26T06:14:03.046Z,24.00
2022-08-26T06:16:34.765Z,24.10
2022-08-26T06:19:10.547Z,24.10
2022-08-26T06:21:41.244Z,24.10
2022-08-26T06:24:29.818Z,24.10
2022-08-26T06:27:01.884Z,24.20
2022-08-26T06:29:33.123Z,24.20
2022-08-26T06:32:02.397Z,24.20
2022-08-26T06:34:32.727Z,24.20
2022-08-26T06:37:03.504Z,24.20
2022-08-26T06:39:32.943Z,24.30
2022-08-26T06:42:02.702Z,24.30
2022-08-26T06:44:32.476Z,24.30
2022-08-26T06:47:00.627Z,24.30
2022-08-26T06:49:29.192Z,24.40
2022-08-26T06:51:59.171Z,24.30
2022-08-26T06:54:28.387Z,24.40
2022-08-26T06:56:57.934Z,24.40
2022-08-26T06:59:26.962Z,24.40
2022-08-26T07:01:55.583Z,24.50
2022-08-26T07:04:27.889Z,24.50
2022-08-26T07:06:58.406Z,24.60
2022-08-26T07:09:29.299Z,24.60
2022-08-26T07:11:58.787Z,24.70
2022-08-26T07:14:27.529Z,24.80
2022-08-26T07:16:56.130Z,25.50
2022-08-26T07:19:30.253Z,24.90
2022-08-26T07:22:02.432Z,24.90
2022-08-26T07:24:32.492Z,25.00
2022-08-26T07:27:02.709Z,25.10
2022-08-26T07:29:31.455Z,25.10
2022-08-26T07:32:00.575Z,25.10
2022-08-26T07:34:29.269Z,25.20
2022-08-26T07:36:58.730Z,25.20
2022-08-26T07:39:31.430Z,25.30
2022-08-26T07:42:00.279Z,25.30
2022-08-26T07:44:30.059Z,25.30
2022-08-26T07:46:58.811Z,25.40
2022-08-26T07:49:28.194Z,25.50
2022-08-26T07:51:57.192Z,25.50
2022-08-26T07:54:27.319Z,25.50
2022-08-26T07:56:57.102Z,25.50
2022-08-26T07:59:26.931Z,25.60
2022-08-26T08:01:57.603Z,25.60
2022-08-26T08:04:26.773Z,25.70
2022-08-26T08:06:56.022Z,25.70
2022-08-26T08:09:25.550Z,25.70
2022-08-26T08:11:53.968Z,25.80
2022-08-26T08:14:23.480Z,25.80
2022-08-26T08:16:54.988Z,25.80
2022-08-26T08:19:29.851Z,25.80
2022-08-26T08:22:05.312Z,25.80
2022-08-26T08:24:46.377Z,25.90
2022-08-26T08:27:23.273Z,25.90
2022-08-26T08:29:55.575Z,25.90
2022-08-26T08:32:24.832Z,25.90
2022-08-26T08:34:54.185Z,25.90
2022-08-26T08:37:22.708Z,25.90
2022-08-26T08:39:51.677Z,25.90
2022-08-26T08:42:44.400Z,25.90
2022-08-26T08:45:16.891Z,25.90
2022-08-26T08:47:51.490Z,25.90
2022-08-26T08:50:27.097Z,26.00
2022-08-26T08:53:08.819Z,26.00
2022-08-26T08:55:46.194Z,26.00
2022-08-26T08:58:19.187Z,26.00
2022-08-26T09:00:55.608Z,26.00
2022-08-26T09:03:36.591Z,26.10
2022-08-26T09:06:17.498Z,26.10
2022-08-26T09:08:50.085Z,26.20
2022-08-26T09:11:21.590Z,26.20
2022-08-26T09:13:53.176Z,26.20
2022-08-26T09:16:28.399Z,26.20
2022-08-26T09:19:19.221Z,26.30
2022-08-26T09:21:56.855Z,26.40
2022-08-26T09:24:28.309Z,26.40
2022-08-26T09:26:59.496Z,27.80
2022-08-26T09:29:30.244Z,26.40
2022-08-26T09:32:19.429Z,26.50
2022-08-26T09:34:57.795Z,26.60
2022-08-26T09:37:42.295Z,26.60
2022-08-26T09:40:34.824Z,26.60
2022-08-26T09:43:13.939Z,26.70
2022-08-26T09:45:50.241Z,26.80
2022-08-26T09:48:36.368Z,26.80
2022-08-26T09:51:07.219Z,26.90
2022-08-26T09:53:50.535Z,26.90
2022-08-26T09:56:27.527Z,27.00
2022-08-26T09:58:57.149Z,27.00
2022-08-26T10:01:33.143Z,27.10
2022-08-26T10:04:12.786Z,27.10
2022-08-26T10:06:44.020Z,27.20
2022-08-26T10:09:14.871Z,27.20
2022-08-26T10:11:47.752Z,27.30
2022-08-26T10:14:20.654Z,27.30
2022-08-26T10:16:54.893Z,27.40
2022-08-26T10:19:41.585Z,28.30
2022-08-26T10:22:24.418Z,27.50
2022-08-26T10:24:59.008Z,27.60
2022-08-26T10:27:35.595Z,27.70
2022-08-26T10:30:09.971Z,27.70
2022-08-26T10:32:41.559Z,27.80
2022-08-26T10:35:14.502Z,27.90
2022-08-26T10:37:47.908Z,27.90
2022-08-26T10:40:23.919Z,28.00
2022-08-26T10:42:58.042Z,28.00
2022-08-26T10:45:30.351Z,28.10
2022-08-26T10:48:06.649Z,28.10
2022-08-26T10:50:39.496Z,28.20
2022-08-26T10:53:14.990Z,28.20
2022-08-26T10:55:51.576Z,28.30
2022-08-26T10:58:38.108Z,28.30
2022-08-26T11:01:31.129Z,28.50
2022-08-26T11:04:09.185Z,28.60
2022-08-26T11:06:39.316Z,28.70
2022-08-26T11:09:11.192Z,28.80
2022-08-26T11:11:47.624Z,28.90
2022-08-26T11:14:53.961Z,29.00
2022-08-26T11:17:56.096Z,29.10
2022-08-26T11:20:34.915Z,29.30
2022-08-26T11:23:36.749Z,29.40
2022-08-26T11:26:37.882Z,29.50
2022-08-26T11:29:12.196Z,29.70
2022-08-26T11:31:56.801Z,29.80
2022-08-26T11:34:54.551Z,29.90
2022-08-26T11:37:25.963Z,30.00
2022-08-26T11:39:57.640Z,30.00
2022-08-26T11:42:35.938Z,30.10
2022-08-26T11:45:20.398Z,30.10
2022-08-26T11:47:49.613Z,30.20
2022-08-26T11:50:23.333Z,30.10
2022-08-26T11:52:56.758Z,30.20
2022-08-26T11:55:25.495Z,30.30
2022-08-26T11:57:58.220Z,30.30
2022-08-26T12:00:33.286Z,30.40
2022-08-26T12:03:03.466Z,30.50
2022-08-26T12:05:36.207Z,30.60
2022-08-26T12:08:09.954Z,30.70
2022-08-26T12:10:39.071Z,30.80
2022-08-26T12:13:10.364Z,30.90
2022-08-26T12:15:38.593Z,31.00
2022-08-26T12:18:28.690Z,31.10
2022-08-26T12:21:01.738Z,31.20
2022-08-26T12:23:41.297Z,31.40
2022-08-26T12:26:13.438Z,31.50
2022-08-26T12:28:48.508Z,31.60
2022-08-26T12:31:23.946Z,31.80
2022-08-26T12:33:53.213Z,31.90
2022-08-26T12:36:26.261Z,32.10
2022-08-26T12:38:58.282Z,32.10
2022-08-26T12:41:42.048Z,32.30
2022-08-26T12:44:54.302Z,32.30
2022-08-26T12:47:39.025Z,32.40
2022-08-26T12:50:20.455Z,32.50
2022-08-26T12:53:00.417Z,32.60
2022-08-26T12:55:39.730Z,32.60
2022-08-26T12:58:27.422Z,32.70
2022-08-26T13:00:59.337Z,32.70
2022-08-26T13:03:45.802Z,32.80
2022-08-26T13:06:26.773Z,32.80
2022-08-26T13:08:56.485Z,32.90
2022-08-26T13:11:27.624Z,32.90
2022-08-26T13:13:58.483Z,33.00
2022-08-26T13:16:29.494Z,33.20
2022-08-26T13:19:00.461Z,33.30
2022-08-26T13:21:35.501Z,33.40
2022-08-26T13:24:09.784Z,33.60
2022-08-26T13:26:37.887Z,33.80
2022-08-26T13:29:10.205Z,34.00
2022-08-26T13:31:42.364Z,34.20
2022-08-26T13:34:13.376Z,34.30
2022-08-26T13:36:42.237Z,34.50
2022-08-26T13:39:10.345Z,34.60
2022-08-26T13:41:39.115Z,34.80
2022-08-26T13:44:07.829Z,34.80
2022-08-26T13:46:36.694Z,34.80
2022-08-26T13:49:06.830Z,34.80
2022-08-26T13:51:35.907Z,34.70
2022-08-26T13:54:05.556Z,34.50
2022-08-26T13:56:34.558Z,34.30
2022-08-26T13:59:03.615Z,34.00
2022-08-26T14:01:33.923Z,33.80
2022-08-26T14:04:03.222Z,33.50
2022-08-26T14:06:33.880Z,33.30
2022-08-26T14:09:02.041Z,33.00
2022-08-26T14:11:37.026Z,32.70
2022-08-26T14:14:19.302Z,32.30
2022-08-26T14:16:59.108Z,31.90
2022-08-26T14:19:29.683Z,31.50
2022-08-26T14:22:01.245Z,31.10
2022-08-26T14:24:29.987Z,30.60
2022-08-26T14:26:58.599Z,30.30
2022-08-26T14:29:27.298Z,29.90
2022-08-26T14:31:59.115Z,29.50
2022-08-26T14:34:27.285Z,29.10
2022-08-26T14:36:55.832Z,28.70
2022-08-26T14:39:25.753Z,28.40
2022-08-26T14:41:57.231Z,28.10
2022-08-26T14:44:28.839Z,27.80
2022-08-26T14:46:58.050Z,27.60
2022-08-26T14:49:27.385Z,27.40
2022-08-26T14:51:56.883Z,27.20
2022-08-26T14:54:25.821Z,26.90
2022-08-26T14:56:56.590Z,26.80
2022-08-26T14:59:27.349Z,26.60
2022-08-26T15:01:56.656Z,26.40
2022-08-26T15:04:26.396Z,26.30
2022-08-26T15:06:56.944Z,26.20
2022-08-26T15:09:27.726Z,26.10
2022-08-26T15:11:56.014Z,26.00
2022-08-26T15:14:26.050Z,25.90
2022-08-26T15:16:58.424Z,25.90
2022-08-26T15:19:27.474Z,25.70
2022-08-26T15:21:55.892Z,25.70
2022-08-26T15:24:29.244Z,25.60
2022-08-26T15:26:57.935Z,25.50
2022-08-26T15:29:26.529Z,25.50
2022-08-26T15:31:57.233Z,25.50
2022-08-26T15:34:26.568Z,25.50
2022-08-26T15:36:55.617Z,25.40
2022-08-26T15:39:23.852Z,25.40
2022-08-26T15:41:53.823Z,25.30
2022-08-26T15:44:21.980Z,25.30
2022-08-26T15:46:55.343Z,24.00
2022-08-26T15:49:26.461Z,25.10
2022-08-26T15:51:55.047Z,25.10
2022-08-26T15:54:25.557Z,24.90
2022-08-26T15:56:55.072Z,24.90
2022-08-26T15:59:24.418Z,24.80
2022-08-26T16:01:53.175Z,24.70
2022-08-26T16:04:21.961Z,24.50
2022-08-26T16:06:52.526Z,24.50
2022-08-26T16:09:23.934Z,24.40
2022-08-26T16:11:54.908Z,24.30
2022-08-26T16:14:23.830Z,24.20
2022-08-26T16:16:52.697Z,24.20
2022-08-26T16:19:21.734Z,24.10
2022-08-26T16:21:51.860Z,24.10
2022-08-26T16:24:24.848Z,24.10
2022-08-26T16:26:56.453Z,24.10
2022-08-26T16:29:25.005Z,24.00
2022-08-26T16:31:55.143Z,24.10
2022-08-26T16:34:24.160Z,24.00
2022-08-26T16:36:52.443Z,24.10
2022-08-26T16:39:21.061Z,24.10
2022-08-26T16:41:49.260Z,24.10
2022-08-26T16:44:19.104Z,24.10
2022-08-26T16:46:47.277Z,24.10
2022-08-26T16:49:15.893Z,24.10
2022-08-26T16:51:44.469Z,24.10
2022-08-26T16:54:13.064Z,24.10
2022-08-26T16:56:41.618Z,24.00
2022-08-26T16:59:12.072Z,23.90
2022-08-26T17:01:41.625Z,23.90
2022-08-26T17:04:10.265Z,23.80
2022-08-26T17:06:38.477Z,23.80
2022-08-26T17:09:07.327Z,23.80
2022-08-26T17:11:35.757Z,23.80
2022-08-26T17:14:04.434Z,23.80
2022-08-26T17:16:33.339Z,23.80
2022-08-26T17:19:04.484Z,23.80
2022-08-26T17:21:34.516Z,23.80
2022-08-26T17:24:03.127Z,23.80
2022-08-26T17:26:31.744Z,23.80
2022-08-26T17:29:01.045Z,23.80
2022-08-26T17:31:29.188Z,23.80
2022-08-26T17:33:57.873Z,23.80
2022-08-26T17:36:28.482Z,23.80
2022-08-26T17:38:58.468Z,23.70
2022-08-26T17:41:27.900Z,23.70
2022-08-26T17:43:56.172Z,23.70
2022-08-26T17:46:25.243Z,23.70
2022-08-26T17:48:53.898Z,23.60
2022-08-26T17:51:23.931Z,23.70
2022-08-26T17:53:53.790Z,23.60
2022-08-26T17:56:25.685Z,23.60
2022-08-26T17:58:55.242Z,23.60
2022-08-26T18:01:27.893Z,23.60
2022-08-26T18:04:00.298Z,23.50
2022-08-26T18:06:30.840Z,23.50
2022-08-26T18:09:01.322Z,23.50
2022-08-26T18:11:32.583Z,23.50
2022-08-26T18:14:01.527Z,23.50
2022-08-26T18:16:34.534Z,23.50
2022-08-26T18:19:03.147Z,23.50
2022-08-26T18:21:31.411Z,23.50
2022-08-26T18:24:00.989Z,23.50
2022-08-26T18:26:31.622Z,23.50
2022-08-26T18:29:00.823Z,23.40
2022-08-26T18:31:30.193Z,23.50
2022-08-26T18:34:00.632Z,23.40
2022-08-26T18:36:31.429Z,23.40
2022-08-26T18:39:01.520Z,23.30
2022-08-26T18:41:32.300Z,23.30
2022-08-26T18:44:01.126Z,23.30
2022-08-26T18:46:30.154Z,23.40
2022-08-26T18:48:59.527Z,23.30
2022-08-26T18:51:31.128Z,23.30
2022-08-26T18:54:03.596Z,23.30
2022-08-26T18:56:32.213Z,23.30
2022-08-26T18:59:00.867Z,23.30
2022-08-26T19:01:31.063Z,23.30
2022-08-26T19:04:01.342Z,23.30
2022-08-26T19:06:32.052Z,23.20
2022-08-26T19:09:02.462Z,23.20
2022-08-26T19:11:37.389Z,23.30
2022-08-26T19:14:14.021Z,23.30
2022-08-26T19:16:42.967Z,23.30
2022-08-26T19:19:12.075Z,23.30
2022-08-26T19:21:40.838Z,23.20
2022-08-26T19:24:15.837Z,23.20
2022-08-26T19:26:45.196Z,23.20
2022-08-26T19:29:15.695Z,23.20
2022-08-26T19:31:44.625Z,23.20
2022-08-26T19:34:18.335Z,23.20
2022-08-26T19:36:49.472Z,23.20
2022-08-26T19:39:19.390Z,23.20
2022-08-26T19:41:47.966Z,23.20
2022-08-26T19:44:39.283Z,23.20
2022-08-26T19:47:10.701Z,23.20
2022-08-26T19:49:39.651Z,23.30
2022-08-26T19:52:07.998Z,23.30
2022-08-26T19:54:37.647Z,23.30
2022-08-26T19:57:06.543Z,23.20
2022-08-26T19:59:36.691Z,23.30
2022-08-26T20:02:10.923Z,23.30
2022-08-26T20:04:40.848Z,23.30
2022-08-26T20:07:12.025Z,23.30
2022-08-26T20:09:42.572Z,23.30
2022-08-26T20:12:11.362Z,23.30
2022-08-26T20:14:40.219Z,23.30
2022-08-26T20:17:08.378Z,23.30
2022-08-26T20:19:54.941Z,23.30
2022-08-26T20:22:23.397Z,23.30
2022-08-26T20:24:53.710Z,23.30
2022-08-26T20:27:37.702Z,23.30
2022-08-26T20:30:09.348Z,23.30
2022-08-26T20:32:38.903Z,23.30
2022-08-26T20:35:09.552Z,23.30
2022-08-26T20:37:38.819Z,23.30
2022-08-26T20:40:11.148Z,23.30
2022-08-26T20:42:39.429Z,23.30
2022-08-26T20:45:09.448Z,23.30
2022-08-26T20:47:37.724Z,23.30
2022-08-26T20:50:08.084Z,23.30
2022-08-26T20:52:36.381Z,23.20
2022-08-26T20:55:04.755Z,23.20
2022-08-26T20:57:34.659Z,23.20
2022-08-26T21:00:03.299Z,23.10
2022-08-26T21:02:31.445Z,23.10
2022-08-26T21:04:59.595Z,23.00
2022-08-26T21:07:27.775Z,23.00
2022-08-26T21:09:56.123Z,23.00
2022-08-26T21:12:24.236Z,22.90
2022-08-26T21:14:53.781Z,22.80
2022-08-26T21:17:21.896Z,22.80
2022-08-26T21:19:50.532Z,22.80
2022-08-26T21:22:18.639Z,22.70
2022-08-26T21:24:48.233Z,22.70
2022-08-26T21:27:21.297Z,22.60
2022-08-26T21:29:56.612Z,22.50
2022-08-26T21:32:25.229Z,22.50
2022-08-26T21:34:56.147Z,22.50
2022-08-26T21:37:25.014Z,22.40
2022-08-26T21:39:55.246Z,22.40
2022-08-26T21:42:24.656Z,22.40
2022-08-26T21:44:53.414Z,22.30
2022-08-26T21:47:23.669Z,22.30
2022-08-26T21:49:52.543Z,22.30
2022-08-26T21:52:21.871Z,22.30
2022-08-26T21:54:50.484Z,22.20
2022-08-26T21:57:19.566Z,22.20
2022-08-26T21:59:48.110Z,22.20
2022-08-26T22:02:16.255Z,22.20
2022-08-26T22:04:48.862Z,22.10
2022-08-26T22:07:19.550Z,22.10
2022-08-26T22:09:47.954Z,22.10
2022-08-26T22:12:18.673Z,22.00
2022-08-26T22:14:47.115Z,22.10
2022-08-26T22:17:15.972Z,22.00
2022-08-26T22:19:46.794Z,22.00
2022-08-26T22:22:15.835Z,22.00
2022-08-26T22:24:44.382Z,22.00
2022-08-26T22:27:14.061Z,22.00
2022-08-26T22:29:42.567Z,22.00
2022-08-26T22:32:11.628Z,21.90
2022-08-26T22:34:41.012Z,21.90
2022-08-26T22:37:10.909Z,21.90
2022-08-26T22:39:39.502Z,21.90
2022-08-26T22:42:07.810Z,21.90
2022-08-26T22:44:37.959Z,21.90
2022-08-26T22:47:06.347Z,21.90
2022-08-26T22:49:34.878Z,21.90
2022-08-26T22:52:03.196Z,21.80
2022-08-26T22:54:32.905Z,21.90
2022-08-26T22:57:01.065Z,21.90
2022-08-26T22:59:32.179Z,21.90
2022-08-26T23:02:00.696Z,21.90
2022-08-26T23:04:28.822Z,21.90
2022-08-26T23:06:56.935Z,21.90
2022-08-26T23:09:25.070Z,21.90
2022-08-26T23:11:55.954Z,21.90
2022-08-26T23:14:25.548Z,21.90
2022-08-26T23:16:53.836Z,21.90
2022-08-26T23:19:23.677Z,21.90
2022-08-26T23:21:52.026Z,21.90
2022-08-26T23:24:20.862Z,21.90
2022-08-26T23:26:49.230Z,21.90
2022-08-26T23:29:19.134Z,21.90
2022-08-26T23:31:47.305Z,21.80
2022-08-26T23:34:32.888Z,21.80
2022-08-26T23:37:02.004Z,21.80
2022-08-26T23:39:33.874Z,21.80
2022-08-26T23:42:03.454Z,21.80
2022-08-26T23:44:33.231Z,21.80
2022-08-26T23:47:02.150Z,21.80
2022-08-26T23:49:30.701Z,21.80
2022-08-26T23:52:17.257Z,21.80
2022-08-26T23:54:47.819Z,21.80
2022-08-26T23:57:16.994Z,21.80
2022-08-26T23:59:47.333Z,21.80
